Time;durP1;ratioP1;P1;durP2;ratioP2;P2;SDS_P1;SDS_P2;PMS_P1;PMS_P2;Temp;Humidity;BMP_temperature;BMP_pressure;BME280_temperature;BME280_humidity;BME280_pressure;Samples;Min_cycle;Max_cycle;Signal;HPM_P1;HPM_P2
2023/08/30 00:00:37;;;;;;;16.50;13.23;;;14.60;99.90;;;;;;5094707;28;20417;-53
2023/08/30 00:03:03;;;;;;;14.63;12.43;;;14.60;99.90;;;;;;5077760;27;20126;-56
2023/08/30 00:05:30;;;;;;;14.07;12.68;;;14.50;99.90;;;;;;5093711;27;20092;-52
2023/08/30 00:07:56;;;;;;;13.10;11.70;;;14.50;99.90;;;;;;5074995;28;20056;-54
2023/08/30 00:10:21;;;;;;;16.65;13.68;;;14.40;99.90;;;;;;5070345;28;20043;-53
2023/08/30 00:12:47;;;;;;;14.70;13.20;;;14.40;99.90;;;;;;5072161;28;20044;-54
2023/08/30 00:15:14;;;;;;;15.90;13.15;;;14.40;99.90;;;;;;5072126;28;20040;-54
2023/08/30 00:17:40;;;;;;;14.25;12.75;;;14.40;99.90;;;;;;5069235;28;20551;-51
2023/08/30 00:20:06;;;;;;;14.05;12.27;;;14.40;99.90;;;;;;5072375;28;20079;-55
2023/08/30 00:22:33;;;;;;;13.52;11.77;;;14.30;99.90;;;;;;5070012;28;20574;-50
2023/08/30 00:25:00;;;;;;;12.85;11.55;;;14.20;99.90;;;;;;5071552;28;20048;-51
2023/08/30 00:27:25;;;;;;;13.38;11.77;;;14.20;99.90;;;;;;5070205;28;20115;-51
2023/08/30 00:29:51;;;;;;;14.18;12.68;;;14.10;99.90;;;;;;5072796;28;20050;-51
2023/08/30 00:32:17;;;;;;;13.88;12.45;;;14.10;99.90;;;;;;5071315;28;20102;-51
2023/08/30 00:34:42;;;;;;;15.23;11.75;;;14.10;99.90;;;;;;5072747;28;20047;-50
2023/08/30 00:37:08;;;;;;;17.73;12.88;;;14.00;99.90;;;;;;5067763;28;20184;-54
2023/08/30 00:39:37;;;;;;;13.40;12.00;;;14.00;99.90;;;;;;5070781;28;20040;-49
2023/08/30 00:42:05;;;;;;;15.48;12.48;;;14.00;99.90;;;;;;5068698;28;20494;-51
2023/08/30 00:44:32;;;;;;;14.40;12.23;;;14.00;99.90;;;;;;5070774;28;20041;-52
2023/08/30 00:46:58;;;;;;;14.70;13.10;;;14.00;99.90;;;;;;5069567;28;20273;-50
2023/08/30 00:49:24;;;;;;;15.13;13.23;;;13.90;99.90;;;;;;5039406;28;20154;-53
2023/08/30 00:51:51;;;;;;;17.15;13.38;;;14.00;99.90;;;;;;5068491;28;20056;-51
2023/08/30 00:54:17;;;;;;;14.32;12.77;;;13.90;99.90;;;;;;5070478;28;20062;-51
2023/08/30 00:56:43;;;;;;;14.90;13.38;;;13.90;99.90;;;;;;5071405;28;20036;-50
2023/08/30 00:59:10;;;;;;;15.75;14.02;;;13.90;99.90;;;;;;5069716;28;20114;-53
2023/08/30 01:01:35;;;;;;;15.15;13.25;;;13.90;99.90;;;;;;5067754;28;20491;-53
2023/08/30 01:04:02;;;;;;;15.02;12.82;;;13.90;99.90;;;;;;5068327;28;20097;-54
2023/08/30 01:06:27;;;;;;;14.80;13.13;;;13.80;99.90;;;;;;5075063;28;20056;-50
2023/08/30 01:08:53;;;;;;;16.15;13.48;;;13.80;99.90;;;;;;5090756;27;20528;-53
2023/08/30 01:11:26;;;;;;;15.88;13.30;;;13.70;99.90;;;;;;5090926;28;20039;-54
2023/08/30 01:14:20;;;;;;;14.70;13.05;;;13.70;99.90;;;;;;5089027;28;20046;-53
2023/08/30 01:16:46;;;;;;;15.02;12.93;;;13.70;99.90;;;;;;5089077;28;20043;-54
2023/08/30 01:19:23;;;;;;;14.05;12.55;;;13.70;99.90;;;;;;5092133;28;20045;-55
2023/08/30 01:21:58;;;;;;;15.55;12.20;;;13.70;99.90;;;;;;5072684;28;20125;-53
2023/08/30 01:24:48;;;;;;;17.02;12.75;;;13.70;99.90;;;;;;5091091;27;20083;-53
2023/08/30 01:27:16;;;;;;;14.07;11.95;;;13.70;99.90;;;;;;5089276;28;20116;-54
2023/08/30 01:29:44;;;;;;;14.93;11.95;;;13.70;99.90;;;;;;5089148;27;20096;-53
2023/08/30 01:32:11;;;;;;;14.23;12.18;;;13.70;99.90;;;;;;5075587;28;20118;-50
2023/08/30 01:34:38;;;;;;;13.98;12.35;;;13.70;99.90;;;;;;5084201;27;20502;-51
2023/08/30 01:37:08;;;;;;;16.25;11.95;;;13.70;99.90;;;;;;5075174;28;20177;-53
2023/08/30 01:39:36;;;;;;;16.45;12.80;;;13.70;99.90;;;;;;5092231;27;20395;-54
2023/08/30 01:42:04;;;;;;;15.35;12.27;;;13.70;99.90;;;;;;5092053;28;20516;-52
2023/08/30 01:44:31;;;;;;;16.02;11.88;;;13.70;99.90;;;;;;5091301;27;20080;-53
2023/08/30 01:46:58;;;;;;;14.68;11.70;;;13.70;99.90;;;;;;5094033;28;20115;-52
2023/08/30 01:49:25;;;;;;;12.77;11.45;;;13.60;99.90;;;;;;5091423;28;20635;-52
2023/08/30 01:51:51;;;;;;;15.07;11.52;;;13.60;99.90;;;;;;5094604;28;20035;-53
2023/08/30 01:54:18;;;;;;;14.27;12.23;;;13.60;99.90;;;;;;5092427;27;20055;-51
2023/08/30 01:56:46;;;;;;;13.10;11.80;;;13.60;99.90;;;;;;5061015;28;20053;-54
2023/08/30 01:59:12;;;;;;;15.95;11.75;;;13.60;99.90;;;;;;5088609;28;20422;-52
2023/08/30 02:01:38;;;;;;;13.32;11.55;;;13.50;99.90;;;;;;5091479;27;20055;-50
2023/08/30 02:04:03;;;;;;;14.75;11.85;;;13.50;99.90;;;;;;5075855;28;20035;-53
2023/08/30 02:06:42;;;;;;;14.88;11.88;;;13.50;99.90;;;;;;5090564;28;20070;-53
2023/08/30 02:09:32;;;;;;;15.32;11.25;;;13.50;99.90;;;;;;5090760;28;20044;-52
2023/08/30 02:12:05;;;;;;;14.55;11.70;;;13.50;99.90;;;;;;5087968;28;20181;-51
2023/08/30 02:14:32;;;;;;;18.63;12.40;;;13.40;99.90;;;;;;5086940;28;20050;-52
2023/08/30 02:16:58;;;;;;;16.63;12.93;;;13.50;99.90;;;;;;5086455;28;20107;-50
2023/08/30 02:19:25;;;;;;;18.65;12.68;;;13.50;99.90;;;;;;5090596;28;20590;-55
2023/08/30 02:21:50;;;;;;;15.63;12.10;;;13.40;99.90;;;;;;5086894;28;20047;-52
2023/08/30 02:24:16;;;;;;;17.08;12.05;;;13.40;99.90;;;;;;5088757;28;20028;-52
2023/08/30 02:26:42;;;;;;;14.20;11.90;;;13.40;99.90;;;;;;5068359;28;20486;-52
2023/08/30 02:29:09;;;;;;;16.83;12.30;;;13.40;99.90;;;;;;5081353;28;20036;-50
2023/08/30 02:31:35;;;;;;;18.00;12.20;;;13.40;99.90;;;;;;5087120;28;20118;-50
2023/08/30 02:34:02;;;;;;;15.93;11.50;;;13.40;99.90;;;;;;5086314;28;20047;-49
2023/08/30 02:36:28;;;;;;;13.43;10.98;;;13.40;99.90;;;;;;5089812;28;20494;-54
2023/08/30 02:38:53;;;;;;;12.50;11.15;;;13.40;99.90;;;;;;5077651;28;20043;-51
2023/08/30 02:41:19;;;;;;;15.68;12.05;;;13.40;99.90;;;;;;5088135;28;20472;-52
2023/08/30 02:43:45;;;;;;;15.05;11.45;;;13.40;99.90;;;;;;5073826;28;20046;-52
2023/08/30 02:46:10;;;;;;;12.52;10.88;;;13.40;99.90;;;;;;5089375;28;20051;-52
2023/08/30 02:48:36;;;;;;;15.43;11.65;;;13.40;99.90;;;;;;5076632;28;20050;-53
2023/08/30 02:51:02;;;;;;;13.18;11.48;;;13.40;99.90;;;;;;5087462;28;20035;-51
2023/08/30 02:53:27;;;;;;;13.82;11.75;;;13.40;99.90;;;;;;5071650;28;20063;-51
2023/08/30 02:55:55;;;;;;;14.50;10.18;;;13.40;99.90;;;;;;5071304;28;20559;-51
2023/08/30 02:58:21;;;;;;;13.25;11.55;;;13.40;99.90;;;;;;5085839;28;20047;-51
2023/08/30 03:00:47;;;;;;;13.82;10.43;;;13.40;99.90;;;;;;5065477;28;21100;-51
2023/08/30 03:03:13;;;;;;;14.25;11.38;;;13.40;99.90;;;;;;5086698;28;20401;-50
2023/08/30 03:05:38;;;;;;;13.60;11.02;;;13.40;99.90;;;;;;5084034;28;20051;-50
2023/08/30 03:08:04;;;;;;;12.05;10.40;;;13.30;99.90;;;;;;5066732;28;20463;-52
2023/08/30 03:10:30;;;;;;;15.63;10.27;;;13.30;99.90;;;;;;5085901;28;20043;-52
2023/08/30 03:12:56;;;;;;;15.35;10.88;;;13.30;99.90;;;;;;5081478;28;20052;-53
2023/08/30 03:15:21;;;;;;;13.82;11.25;;;13.20;99.90;;;;;;5081713;28;20474;-50
2023/08/30 03:17:47;;;;;;;13.52;10.57;;;13.20;99.90;;;;;;5079600;28;20608;-52
2023/08/30 03:20:13;;;;;;;13.57;10.65;;;13.20;99.90;;;;;;5084353;28;20127;-52
2023/08/30 03:22:39;;;;;;;12.15;10.50;;;13.10;99.90;;;;;;5088654;28;20059;-52
2023/08/30 03:25:05;;;;;;;13.45;10.52;;;13.10;99.90;;;;;;5091923;28;20036;-52
2023/08/30 03:27:33;;;;;;;13.25;10.68;;;13.00;99.90;;;;;;5087522;28;20367;-53
2023/08/30 03:29:58;;;;;;;14.73;10.90;;;13.00;99.90;;;;;;5081676;28;20063;-49
2023/08/30 03:32:24;;;;;;;14.05;10.75;;;13.00;99.90;;;;;;5074469;28;20151;-51
2023/08/30 03:34:50;;;;;;;12.95;11.23;;;13.00;99.90;;;;;;5085087;28;20043;-52
2023/08/30 03:37:16;;;;;;;12.73;11.15;;;12.90;99.90;;;;;;5092990;28;20109;-49
2023/08/30 03:39:42;;;;;;;14.25;11.40;;;12.90;99.90;;;;;;5073397;28;20134;-53
2023/08/30 03:42:09;;;;;;;15.80;11.30;;;12.90;99.90;;;;;;5077864;28;20107;-50
2023/08/30 03:44:34;;;;;;;15.30;12.15;;;12.80;99.90;;;;;;5093238;28;20032;-51
2023/08/30 03:47:00;;;;;;;17.17;12.25;;;12.80;99.90;;;;;;5094835;28;20085;-53
2023/08/30 03:49:26;;;;;;;13.20;11.35;;;12.80;99.90;;;;;;5094132;28;20417;-50
2023/08/30 03:51:51;;;;;;;16.00;11.90;;;12.80;99.90;;;;;;5094488;28;20504;-51
2023/08/30 03:54:17;;;;;;;15.00;11.93;;;12.70;99.90;;;;;;5095653;27;20625;-53
2023/08/30 03:56:44;;;;;;;15.52;12.00;;;12.70;99.90;;;;;;5095380;27;20585;-54
2023/08/30 03:59:10;;;;;;;15.73;11.98;;;12.70;99.90;;;;;;5096484;27;20152;-50
2023/08/30 04:01:35;;;;;;;15.32;11.93;;;12.70;99.90;;;;;;5095197;27;20040;-50
2023/08/30 04:04:01;;;;;;;16.48;12.45;;;12.60;99.90;;;;;;5093530;28;20501;-53
2023/08/30 04:06:27;;;;;;;14.38;11.43;;;12.60;99.90;;;;;;5096295;28;20046;-51
2023/08/30 04:08:53;;;;;;;15.65;11.75;;;12.60;99.90;;;;;;5093474;27;20047;-49
2023/08/30 04:11:18;;;;;;;16.33;12.65;;;12.60;99.90;;;;;;5092744;28;20080;-51
2023/08/30 04:13:44;;;;;;;16.65;12.18;;;12.60;99.90;;;;;;5092699;28;20121;-50
2023/08/30 04:16:10;;;;;;;15.93;12.13;;;12.60;99.90;;;;;;5070574;28;21247;-51
2023/08/30 04:18:36;;;;;;;16.58;12.60;;;12.60;99.90;;;;;;5091447;28;20429;-53
2023/08/30 04:21:02;;;;;;;17.83;12.68;;;12.60;99.90;;;;;;5091809;28;20141;-49
2023/08/30 04:23:31;;;;;;;16.20;12.77;;;12.60;99.90;;;;;;5073605;28;20043;-50
2023/08/30 04:25:56;;;;;;;17.02;13.45;;;12.60;99.90;;;;;;5091415;28;20042;-52
2023/08/30 04:28:22;;;;;;;18.80;12.27;;;12.60;99.90;;;;;;5049151;28;20918;-50
2023/08/30 04:30:53;;;;;;;15.70;12.60;;;12.60;99.90;;;;;;5091673;27;20471;-53
2023/08/30 04:33:18;;;;;;;21.08;13.00;;;12.60;99.90;;;;;;5091804;28;20173;-51
2023/08/30 04:35:44;;;;;;;17.23;12.52;;;12.60;99.90;;;;;;5071853;28;20040;-54
2023/08/30 04:38:10;;;;;;;17.10;12.35;;;12.60;99.90;;;;;;5076333;28;20044;-49
2023/08/30 04:40:36;;;;;;;15.85;12.55;;;12.60;99.90;;;;;;5091717;27;20115;-51
2023/08/30 04:43:02;;;;;;;15.10;11.45;;;12.60;99.90;;;;;;5090349;28;20451;-53
2023/08/30 04:45:28;;;;;;;17.15;12.43;;;12.60;99.90;;;;;;5077215;27;20044;-52
2023/08/30 04:47:54;;;;;;;14.07;11.65;;;12.60;99.90;;;;;;5091886;28;20049;-54
2023/08/30 04:50:20;;;;;;;16.17;12.20;;;12.50;99.90;;;;;;5090587;28;20055;-51
2023/08/30 04:52:45;;;;;;;15.80;12.38;;;12.60;99.90;;;;;;5091989;27;20474;-52
2023/08/30 04:55:11;;;;;;;15.35;12.23;;;12.60;99.90;;;;;;5093448;27;20085;-50
2023/08/30 04:57:37;;;;;;;16.33;12.00;;;12.50;99.90;;;;;;5090421;28;20118;-49
2023/08/30 05:00:04;;;;;;;14.95;11.05;;;12.60;99.90;;;;;;5088982;28;20046;-52
2023/08/30 05:02:31;;;;;;;16.05;11.82;;;12.60;99.90;;;;;;5090124;28;20047;-51
2023/08/30 05:04:56;;;;;;;15.15;11.95;;;12.60;99.90;;;;;;5091881;27;20039;-53
2023/08/30 05:07:22;;;;;;;13.27;10.95;;;12.60;99.90;;;;;;5090502;27;20059;-53
2023/08/30 05:09:48;;;;;;;15.30;11.68;;;12.60;99.90;;;;;;5090905;27;20031;-50
2023/08/30 05:12:14;;;;;;;16.45;11.52;;;12.60;99.90;;;;;;5094520;27;20050;-52
2023/08/30 05:14:40;;;;;;;14.05;11.05;;;12.60;99.90;;;;;;5093342;27;20405;-50
2023/08/30 05:17:07;;;;;;;13.07;10.82;;;12.60;99.90;;;;;;5090694;28;20142;-50
2023/08/30 05:19:33;;;;;;;13.10;10.63;;;12.70;99.90;;;;;;5091782;27;20093;-53
2023/08/30 05:21:58;;;;;;;13.93;10.80;;;12.70;99.90;;;;;;5045215;28;20052;-53
2023/08/30 05:24:26;;;;;;;15.63;10.85;;;12.70;99.90;;;;;;5080325;27;20035;-56
2023/08/30 05:26:52;;;;;;;14.43;10.93;;;12.80;99.90;;;;;;5082699;27;20048;-56
2023/08/30 05:29:18;;;;;;;16.65;11.73;;;12.80;99.90;;;;;;5066547;28;20055;-53
2023/08/30 05:31:43;;;;;;;13.55;10.13;;;12.80;99.90;;;;;;5070404;28;20039;-54
2023/08/30 05:34:10;;;;;;;21.42;11.02;;;12.90;99.90;;;;;;5078108;28;20080;-55
2023/08/30 05:36:36;;;;;;;14.13;10.65;;;12.90;99.90;;;;;;5083749;28;20050;-49
2023/08/30 05:39:03;;;;;;;16.13;12.00;;;12.90;99.90;;;;;;5084799;27;20051;-53
2023/08/30 05:41:29;;;;;;;13.70;10.85;;;13.00;99.90;;;;;;5085606;28;20074;-49
2023/08/30 05:43:55;;;;;;;14.70;11.00;;;13.00;99.90;;;;;;5086189;28;20046;-50
2023/08/30 05:46:21;;;;;;;14.40;10.95;;;13.10;99.90;;;;;;5086541;28;20035;-54
2023/08/30 05:48:47;;;;;;;14.02;11.45;;;13.00;99.90;;;;;;5086504;28;20513;-50
2023/08/30 05:51:13;;;;;;;13.20;11.25;;;13.10;99.90;;;;;;5056200;28;20044;-50
2023/08/30 05:53:38;;;;;;;14.65;10.77;;;13.10;99.90;;;;;;5095367;28;20393;-52
2023/08/30 05:56:04;;;;;;;14.10;10.43;;;13.10;99.90;;;;;;5092697;28;20035;-49
2023/08/30 05:58:30;;;;;;;13.65;10.73;;;13.10;99.90;;;;;;5092536;28;20048;-50
2023/08/30 06:00:56;;;;;;;13.38;11.30;;;13.10;99.90;;;;;;5092051;28;20104;-51
2023/08/30 06:03:22;;;;;;;14.95;11.02;;;13.20;99.90;;;;;;5093399;28;20616;-53
2023/08/30 06:05:51;;;;;;;13.48;11.20;;;13.20;99.90;;;;;;5096527;28;20113;-54
2023/08/30 06:08:17;;;;;;;13.75;11.23;;;13.30;99.90;;;;;;5090363;28;20601;-53
2023/08/30 06:10:43;;;;;;;14.98;11.25;;;13.30;99.90;;;;;;5071818;28;20422;-53
2023/08/30 06:13:09;;;;;;;15.68;11.07;;;13.30;99.90;;;;;;5091800;27;20043;-54
2023/08/30 06:15:38;;;;;;;13.35;10.75;;;13.40;99.90;;;;;;5073431;28;20050;-54
2023/08/30 06:18:04;;;;;;;13.07;10.13;;;13.40;99.90;;;;;;5090835;28;20040;-54
2023/08/30 06:20:30;;;;;;;14.93;11.73;;;13.50;99.90;;;;;;5094675;27;20390;-53
2023/08/30 06:22:58;;;;;;;15.63;11.02;;;13.50;99.90;;;;;;5092086;28;20536;-49
2023/08/30 06:25:24;;;;;;;17.88;10.98;;;13.60;99.90;;;;;;5092094;28;20097;-54
2023/08/30 06:27:58;;;;;;;14.60;10.80;;;13.60;99.90;;;;;;5091689;28;20386;-49
2023/08/30 06:30:25;;;;;;;14.35;11.23;;;13.80;99.90;;;;;;5092173;28;20474;-50
2023/08/30 06:32:51;;;;;;;12.98;10.20;;;13.90;99.90;;;;;;5094117;28;20039;-50
2023/08/30 06:35:17;;;;;;;15.20;11.05;;;13.90;99.90;;;;;;5092716;28;20039;-49
2023/08/30 06:37:43;;;;;;;14.93;10.48;;;13.90;99.90;;;;;;5092155;28;20112;-49
2023/08/30 06:40:09;;;;;;;15.23;10.82;;;14.00;99.90;;;;;;5058242;28;20115;-54
2023/08/30 06:42:35;;;;;;;14.38;10.70;;;14.10;99.90;;;;;;5089980;28;20570;-52
2023/08/30 06:45:02;;;;;;;13.10;10.57;;;14.10;99.90;;;;;;5068692;28;20088;-52
2023/08/30 06:47:28;;;;;;;16.60;10.65;;;14.10;99.90;;;;;;5087583;28;20043;-50
2023/08/30 06:49:53;;;;;;;16.63;11.00;;;14.10;99.90;;;;;;5082677;28;20044;-55
2023/08/30 06:52:19;;;;;;;15.77;10.98;;;14.10;99.90;;;;;;5066828;28;20043;-54
2023/08/30 06:54:45;;;;;;;12.73;9.98;;;14.20;99.90;;;;;;5064850;28;20054;-51
2023/08/30 06:57:10;;;;;;;12.85;9.73;;;14.10;99.90;;;;;;5073916;28;20035;-56
2023/08/30 06:59:36;;;;;;;14.32;9.98;;;14.20;99.90;;;;;;5065852;28;20051;-50
2023/08/30 07:02:03;;;;;;;15.52;10.02;;;14.20;99.90;;;;;;5082667;28;20159;-50
2023/08/30 07:04:28;;;;;;;13.05;9.73;;;14.30;99.90;;;;;;5082492;28;20032;-53
2023/08/30 07:06:54;;;;;;;12.63;9.77;;;14.30;99.90;;;;;;5082597;28;20055;-53
2023/08/30 07:09:20;;;;;;;13.50;9.50;;;14.40;99.90;;;;;;5083584;28;20047;-55
2023/08/30 07:11:46;;;;;;;13.32;9.52;;;14.40;99.90;;;;;;5082569;28;20049;-49
2023/08/30 07:14:14;;;;;;;13.15;9.30;;;14.50;99.90;;;;;;5084045;28;20126;-52
2023/08/30 07:16:40;;;;;;;11.75;8.68;;;14.50;99.90;;;;;;5086088;27;20039;-51
2023/08/30 07:19:06;;;;;;;12.45;8.43;;;14.50;99.90;;;;;;5090938;28;20048;-52
2023/08/30 07:21:32;;;;;;;12.75;9.30;;;14.50;99.90;;;;;;5089757;27;20044;-50
2023/08/30 07:23:58;;;;;;;13.30;9.50;;;14.60;99.90;;;;;;5093671;27;20461;-51
2023/08/30 07:26:24;;;;;;;14.63;8.93;;;14.60;99.90;;;;;;5094975;28;20111;-51
2023/08/30 07:28:50;;;;;;;12.95;8.40;;;14.60;99.90;;;;;;5092443;27;20040;-52
2023/08/30 07:31:18;;;;;;;12.45;8.45;;;14.60;99.90;;;;;;5076534;28;20051;-54
2023/08/30 07:33:44;;;;;;;13.00;8.93;;;14.70;99.90;;;;;;5090052;28;20050;-54
2023/08/30 07:36:11;;;;;;;11.13;7.88;;;14.80;99.90;;;;;;5089371;27;20127;-55
2023/08/30 07:38:37;;;;;;;14.38;8.30;;;14.80;99.90;;;;;;5071438;27;20454;-53
2023/08/30 07:41:02;;;;;;;11.43;8.35;;;14.90;99.90;;;;;;5068529;28;20158;-53
2023/08/30 07:43:28;;;;;;;10.68;8.40;;;14.90;99.90;;;;;;5092161;28;20055;-53
2023/08/30 07:45:54;;;;;;;13.23;8.45;;;15.10;99.90;;;;;;5092769;27;20071;-53
2023/08/30 07:48:20;;;;;;;10.98;7.93;;;15.20;99.90;;;;;;5093839;28;20050;-51
2023/08/30 07:50:45;;;;;;;11.85;7.63;;;15.40;99.90;;;;;;5086451;27;20050;-49
2023/08/30 07:53:12;;;;;;;11.20;7.47;;;15.50;99.90;;;;;;5092308;27;20036;-50
2023/08/30 07:55:38;;;;;;;12.85;7.70;;;15.60;99.90;;;;;;5092732;27;20082;-53
2023/08/30 07:58:03;;;;;;;13.30;7.38;;;15.70;99.90;;;;;;5094630;27;20073;-55
2023/08/30 08:00:30;;;;;;;9.93;7.65;;;15.80;99.90;;;;;;5085590;27;20593;-51
2023/08/30 08:02:55;;;;;;;9.80;7.38;;;15.80;99.90;;;;;;5090097;28;20120;-49
2023/08/30 08:05:21;;;;;;;12.80;7.53;;;15.90;99.90;;;;;;5093601;27;20361;-50
2023/08/30 08:07:56;;;;;;;10.82;7.20;;;16.00;99.90;;;;;;5086924;28;20292;-54
2023/08/30 08:10:22;;;;;;;13.75;7.53;;;16.10;99.90;;;;;;5074112;28;20139;-49
2023/08/30 08:12:47;;;;;;;10.55;7.88;;;16.20;99.90;;;;;;5092531;28;20116;-51
2023/08/30 08:15:13;;;;;;;12.30;7.85;;;16.30;99.90;;;;;;5092319;27;20032;-51
2023/08/30 08:17:39;;;;;;;12.82;7.82;;;16.30;99.90;;;;;;5088672;27;20093;-53
2023/08/30 08:20:05;;;;;;;9.90;7.78;;;16.30;99.90;;;;;;5093812;28;20043;-52
2023/08/30 08:22:31;;;;;;;12.98;8.10;;;16.40;99.90;;;;;;5084500;27;20070;-56
2023/08/30 08:24:57;;;;;;;10.35;7.47;;;16.40;99.90;;;;;;5091054;27;20039;-56
2023/08/30 08:27:25;;;;;;;14.32;8.13;;;16.50;99.90;;;;;;5089249;28;20048;-53
2023/08/30 08:29:51;;;;;;;12.55;8.23;;;16.50;99.90;;;;;;5087971;27;20080;-52
2023/08/30 08:32:16;;;;;;;13.52;8.40;;;16.50;99.90;;;;;;5091387;28;20044;-52
2023/08/30 08:34:42;;;;;;;11.50;8.32;;;16.50;99.90;;;;;;5091719;27;20067;-51
2023/08/30 08:37:08;;;;;;;12.40;8.40;;;16.50;99.90;;;;;;5089054;27;20066;-53
2023/08/30 08:39:34;;;;;;;11.27;8.30;;;16.60;99.90;;;;;;5091442;27;20036;-57
2023/08/30 08:42:01;;;;;;;12.35;8.77;;;16.60;99.90;;;;;;5093306;27;20043;-52
2023/08/30 08:44:31;;;;;;;12.07;8.40;;;16.60;99.90;;;;;;5086562;28;20412;-50
2023/08/30 08:46:58;;;;;;;12.20;8.18;;;16.70;99.90;;;;;;5076716;27;20049;-52
2023/08/30 08:49:30;;;;;;;15.07;8.73;;;16.70;99.90;;;;;;5083974;28;20192;-56
2023/08/30 08:51:56;;;;;;;15.73;8.15;;;16.80;99.90;;;;;;5090994;28;20090;-52
2023/08/30 08:54:21;;;;;;;15.52;8.80;;;16.90;99.90;;;;;;5091502;28;20526;-55
2023/08/30 08:56:48;;;;;;;12.32;8.38;;;16.90;99.90;;;;;;5092581;28;20047;-54
2023/08/30 08:59:14;;;;;;;12.25;7.93;;;17.00;99.90;;;;;;5092239;28;20159;-53
2023/08/30 09:01:39;;;;;;;11.27;8.05;;;17.00;99.90;;;;;;5090137;27;20492;-53
2023/08/30 09:04:09;;;;;;;11.57;7.80;;;17.00;99.90;;;;;;5093532;27;20472;-53
2023/08/30 09:06:36;;;;;;;11.35;8.02;;;17.00;99.90;;;;;;5095101;27;20043;-56
2023/08/30 09:09:03;;;;;;;12.88;8.05;;;16.90;99.90;;;;;;5093835;27;20402;-55
2023/08/30 09:11:29;;;;;;;12.55;7.90;;;16.90;99.90;;;;;;5074004;28;20044;-53
2023/08/30 09:13:55;;;;;;;11.63;7.97;;;16.80;99.90;;;;;;5089765;28;20406;-55
2023/08/30 09:16:21;;;;;;;12.00;8.35;;;16.70;99.90;;;;;;5074416;28;20031;-53
2023/08/30 09:19:09;;;;;;;11.02;7.50;;;16.70;99.90;;;;;;5081829;27;20047;-51
2023/08/30 09:21:35;;;;;;;12.43;8.23;;;16.70;99.90;;;;;;5084378;28;20516;-55
2023/08/30 09:24:02;;;;;;;12.13;7.75;;;16.60;99.90;;;;;;5081650;28;20488;-54
2023/08/30 09:26:29;;;;;;;13.75;7.72;;;16.60;99.90;;;;;;5082449;28;20043;-53
2023/08/30 09:29:03;;;;;;;12.02;8.30;;;16.60;99.90;;;;;;5080698;28;20123;-51
2023/08/30 09:31:36;;;;;;;11.07;7.80;;;16.60;99.90;;;;;;5081137;27;20059;-51
2023/08/30 09:34:06;;;;;;;13.20;8.68;;;16.60;99.90;;;;;;5081510;28;20047;-51
2023/08/30 09:36:36;;;;;;;15.13;7.70;;;16.70;99.90;;;;;;5083031;27;20039;-53
2023/08/30 09:39:09;;;;;;;12.63;8.45;;;16.70;99.90;;;;;;5090164;28;20040;-50
2023/08/30 09:41:36;;;;;;;12.98;8.63;;;16.80;99.90;;;;;;5094029;27;20047;-52
2023/08/30 09:44:29;;;;;;;13.20;8.45;;;16.80;99.90;;;;;;5094456;27;20040;-51
2023/08/30 09:46:56;;;;;;;13.27;7.63;;;16.90;99.90;;;;;;5074212;28;20403;-54
2023/08/30 09:49:24;;;;;;;13.40;8.10;;;17.00;99.90;;;;;;5095712;28;20071;-52
2023/08/30 09:51:51;;;;;;;11.23;8.38;;;17.00;99.90;;;;;;5093438;27;20046;-51
2023/08/30 09:54:25;;;;;;;20.27;9.13;;;17.00;99.90;;;;;;5093934;28;20048;-53
2023/08/30 09:56:52;;;;;;;13.85;9.00;;;17.00;99.90;;;;;;5092927;28;20488;-53
2023/08/30 09:59:19;;;;;;;12.50;7.95;;;17.00;99.90;;;;;;5093053;28;20046;-50
2023/08/30 10:01:48;;;;;;;10.05;7.72;;;17.00;99.90;;;;;;5091333;27;20486;-54
2023/08/30 10:04:15;;;;;;;11.25;7.63;;;17.00;99.90;;;;;;5070669;28;20498;-51
2023/08/30 10:06:41;;;;;;;12.70;7.28;;;17.00;99.90;;;;;;5071898;28;20056;-49
2023/08/30 10:09:08;;;;;;;13.15;7.13;;;17.00;99.90;;;;;;5081228;28;20056;-53
2023/08/30 10:11:35;;;;;;;12.50;7.78;;;17.00;99.90;;;;;;5068773;28;20125;-50
2023/08/30 10:14:06;;;;;;;10.88;7.10;;;17.10;99.90;;;;;;5081687;27;20428;-54
2023/08/30 10:16:56;;;;;;;10.82;7.30;;;17.20;99.90;;;;;;5081984;28;20394;-51
2023/08/30 10:19:27;;;;;;;10.77;7.75;;;17.30;99.90;;;;;;5084879;28;20119;-52
2023/08/30 10:22:12;;;;;;;9.70;7.15;;;17.30;99.90;;;;;;5081321;28;20096;-56
2023/08/30 10:24:59;;;;;;;10.10;7.05;;;17.30;99.90;;;;;;5085891;28;20074;-51
2023/08/30 10:27:26;;;;;;;9.90;7.15;;;17.40;99.90;;;;;;5083753;28;20122;-51
2023/08/30 10:29:53;;;;;;;10.93;7.10;;;17.40;99.90;;;;;;5086243;28;20051;-55
2023/08/30 10:32:22;;;;;;;9.65;6.80;;;17.50;99.90;;;;;;5086695;28;20039;-52
2023/08/30 10:34:49;;;;;;;9.13;7.20;;;17.40;99.90;;;;;;5085287;27;20413;-52
2023/08/30 10:37:15;;;;;;;10.70;6.93;;;17.50;99.90;;;;;;5082411;28;20578;-51
2023/08/30 10:39:42;;;;;;;8.13;5.88;;;17.50;99.90;;;;;;5072112;28;20047;-50
2023/08/30 10:42:08;;;;;;;8.00;5.78;;;17.60;99.90;;;;;;5090495;28;20055;-54
2023/08/30 10:44:34;;;;;;;8.40;5.00;;;17.60;99.90;;;;;;5092848;28;20042;-54
2023/08/30 10:47:04;;;;;;;7.53;5.35;;;17.70;99.90;;;;;;5090168;28;20039;-51
2023/08/30 10:49:39;;;;;;;11.85;6.10;;;17.70;99.90;;;;;;5094476;27;20114;-52
2023/08/30 10:52:05;;;;;;;7.50;5.70;;;17.70;99.90;;;;;;5098759;27;20047;-51
2023/08/30 10:54:38;;;;;;;7.20;6.22;;;17.70;99.90;;;;;;5096171;27;20108;-53
2023/08/30 10:57:04;;;;;;;10.38;6.10;;;17.70;99.90;;;;;;5097281;27;20039;-54
2023/08/30 10:59:30;;;;;;;8.25;6.70;;;17.70;99.90;;;;;;5099618;27;20048;-53
2023/08/30 11:02:00;;;;;;;10.85;6.63;;;17.70;99.90;;;;;;5098769;27;20040;-53
2023/08/30 11:04:26;;;;;;;9.68;6.65;;;17.70;99.90;;;;;;5100177;27;20040;-52
2023/08/30 11:06:52;;;;;;;8.30;5.93;;;17.70;99.90;;;;;;5065289;27;20461;-49
2023/08/30 11:09:22;;;;;;;10.32;6.57;;;17.70;99.90;;;;;;5098645;27;20055;-53
2023/08/30 11:11:49;;;;;;;13.40;6.75;;;17.70;99.90;;;;;;5100646;27;20051;-51
2023/08/30 11:14:15;;;;;;;12.27;6.40;;;17.70;99.90;;;;;;5095776;27;20441;-49
2023/08/30 11:16:41;;;;;;;7.47;5.90;;;17.70;99.90;;;;;;5098065;27;20118;-54
2023/08/30 11:19:09;;;;;;;8.27;5.63;;;17.70;99.90;;;;;;5098656;27;20048;-52
2023/08/30 11:21:37;;;;;;;5.90;5.20;;;17.80;99.90;;;;;;5099309;27;20038;-52
2023/08/30 11:24:04;;;;;;;6.75;5.05;;;17.90;99.90;;;;;;5100361;27;20044;-57
2023/08/30 11:26:30;;;;;;;8.95;4.68;;;18.00;99.90;;;;;;5099852;27;20645;-51
2023/08/30 11:28:56;;;;;;;6.22;4.28;;;18.00;99.90;;;;;;5096813;27;20039;-53
2023/08/30 11:31:27;;;;;;;5.90;4.22;;;18.10;99.90;;;;;;5097391;27;20572;-51
2023/08/30 11:33:55;;;;;;;4.55;3.95;;;18.10;99.90;;;;;;5098623;27;20145;-56
2023/08/30 11:36:23;;;;;;;6.78;3.75;;;18.20;99.90;;;;;;5082685;27;20052;-53
2023/08/30 11:38:54;;;;;;;5.45;4.20;;;18.20;99.90;;;;;;5100181;27;20043;-58
2023/08/30 11:41:21;;;;;;;4.50;3.42;;;18.30;99.90;;;;;;5098820;27;20050;-54
2023/08/30 11:43:50;;;;;;;7.78;3.90;;;18.40;99.90;;;;;;5084461;27;20442;-55
2023/08/30 11:46:20;;;;;;;5.65;4.15;;;18.40;99.90;;;;;;5097400;27;20036;-53
2023/08/30 11:48:48;;;;;;;7.28;4.43;;;18.30;99.90;;;;;;5097047;27;20487;-54
2023/08/30 11:51:14;;;;;;;7.22;4.80;;;18.30;99.90;;;;;;5097727;27;20035;-52
2023/08/30 11:53:40;;;;;;;6.82;5.03;;;18.30;99.90;;;;;;5100690;27;20059;-52
2023/08/30 11:56:07;;;;;;;5.97;4.72;;;18.20;99.90;;;;;;5098290;27;20063;-52
2023/08/30 11:58:36;;;;;;;7.57;5.05;;;18.20;99.90;;;;;;5099129;27;20146;-55
2023/08/30 12:01:03;;;;;;;7.68;4.82;;;18.20;99.90;;;;;;5097277;27;20036;-51
2023/08/30 12:03:30;;;;;;;6.75;4.68;;;18.10;99.90;;;;;;5094095;27;20204;-51
2023/08/30 12:05:57;;;;;;;6.20;4.57;;;18.10;99.90;;;;;;5077161;27;20035;-50
2023/08/30 12:08:27;;;;;;;6.07;4.63;;;18.10;99.90;;;;;;5093265;28;20131;-53
2023/08/30 12:10:54;;;;;;;6.45;5.00;;;18.10;99.90;;;;;;5095251;28;20075;-51
2023/08/30 12:13:24;;;;;;;5.85;4.65;;;18.10;99.90;;;;;;5091401;27;20081;-52
2023/08/30 12:15:53;;;;;;;7.32;4.32;;;18.10;99.90;;;;;;5094214;28;20043;-53
2023/08/30 12:18:24;;;;;;;6.28;4.72;;;18.20;99.90;;;;;;5072202;28;20036;-54
2023/08/30 12:20:57;;;;;;;6.18;4.60;;;18.10;99.90;;;;;;5095657;27;20562;-51
2023/08/30 12:23:24;;;;;;;5.43;4.38;;;18.10;99.90;;;;;;5094817;28;20028;-51
2023/08/30 12:26:09;;;;;;;6.30;4.53;;;18.00;99.90;;;;;;5096246;27;20043;-50
2023/08/30 12:28:37;;;;;;;7.53;4.57;;;18.10;99.90;;;;;;5091150;28;24193;-51
2023/08/30 12:31:06;;;;;;;7.40;4.97;;;18.00;99.90;;;;;;5093053;27;20047;-52
2023/08/30 12:33:34;;;;;;;6.22;4.88;;;18.00;99.90;;;;;;5094570;28;20047;-55